Home > Products > Valid Products > TAF

000
FTUS46 KMFR 011140
TAFMFR
TAF
KMFR 011140Z 0112/0212 VRB03KT P6SM BKN050
     FM012300 32010KT P6SM VCSH BKN050
     FM020300 VRB03KT P6SM SCT050=



000
FTUS46 KMFR 011140
TAFRBG
TAF
KRBG 011140Z 0112/0212 VRB03KT P6SM BKN009 BKN040
     FM012200 36010KT P6SM -SHRA SCT010 OVC040
     FM020200 VRB03KT P6SM BKN040=



000
FTUS46 KMFR 011140
TAFLMT
TAF
KLMT 011140Z 0112/0212 VRB03KT P6SM SCT040
     FM012300 33010KT P6SM BKN040
     FM020400 VRB03KT P6SM SCT040=



000
FTUS46 KMFR 011140
TAFOTH
TAF
KOTH 011140Z 0112/0212 13005KT P6SM -SHRA SCT008 OVC035
     FM011700 32008KT P6SM -SHRA SCT025 OVC040
     FM012000 35015G23KT P6SM VCSH SCT025 BKN040
     FM020300 36008KT P6SM SCT030 BKN050
     FM020500 VRB03KT P6SM SCT030=



000
FTUS46 KMFR 011140
TAFMFR
TAF
KMFR 011140Z 0112/0212 VRB03KT P6SM BKN050
     FM012300 32010KT P6SM VCSH BKN050
     FM020300 VRB03KT P6SM SCT050=



000
FTUS46 KMFR 011140
TAFOTH
TAF
KOTH 011140Z 0112/0212 13005KT P6SM -SHRA SCT008 OVC035
     FM011700 32008KT P6SM -SHRA SCT025 OVC040
     FM012000 35015G23KT P6SM VCSH SCT025 BKN040
     FM020300 36008KT P6SM SCT030 BKN050
     FM020500 VRB03KT P6SM SCT030=



000
FTUS46 KMFR 011140
TAFRBG
TAF
KRBG 011140Z 0112/0212 VRB03KT P6SM BKN009 BKN040
     FM012200 36010KT P6SM -SHRA SCT010 OVC040
     FM020200 VRB03KT P6SM BKN040=



000
FTUS46 KMFR 011140
TAFLMT
TAF
KLMT 011140Z 0112/0212 VRB03KT P6SM SCT040
     FM012300 33010KT P6SM BKN040
     FM020400 VRB03KT P6SM SCT040=



000
FTUS46 KMFR 010520
TAFRBG
TAF
KRBG 010520Z 0106/0206 VRB03KT P6SM BKN040
     FM012200 36010KT P6SM -SHRA OVC040
     FM020200 VRB03KT P6SM BKN040=



000
FTUS46 KMFR 010520
TAFMFR
TAF
KMFR 010520Z 0106/0206 VRB03KT P6SM BKN050
     FM012300 32010KT P6SM VCSH BKN050
     FM020300 VRB03KT P6SM SCT050=



000
FTUS46 KMFR 010520
TAFLMT
TAF
KLMT 010520Z 0106/0206 VRB03KT P6SM SCT040
     FM012300 33010KT P6SM BKN040
     FM020400 VRB03KT P6SM SCT040=



000
FTUS46 KMFR 010520
TAFOTH
TAF
KOTH 010520Z 0106/0206 15005KT P6SM -SHRA SCT020 BKN040
     FM011700 32008KT P6SM -SHRA SCT020 OVC040
     FM012000 35014G25KT P6SM VCSH BKN040
     FM020200 36008KT P6SM SCT040
     FM020500 VRB03KT P6SM SCT040=



000
FTUS46 KMFR 010520
TAFLMT
TAF
KLMT 010520Z 0106/0206 VRB03KT P6SM SCT040
     FM012300 33010KT P6SM BKN040
     FM020400 VRB03KT P6SM SCT040=



000
FTUS46 KMFR 010520
TAFMFR
TAF
KMFR 010520Z 0106/0206 VRB03KT P6SM BKN050
     FM012300 32010KT P6SM VCSH BKN050
     FM020300 VRB03KT P6SM SCT050=



000
FTUS46 KMFR 010102 AAA
TAFLMT
TAF AMD
KLMT 010102Z 0101/0124 30015G25KT P6SM -SHRA FEW030 SCT050
     FM010200 32009KT P6SM SCT070 SCT100
     FM011000 VRB02KT P6SM SCT015 SCT050
     FM011800 33010KT P6SM VCSH SCT015 BKN030=



000
FTUS46 KMFR 010102 AAA
TAFLMT
TAF AMD
KLMT 010102Z 0101/0124 30015G25KT P6SM -SHRA FEW030 SCT050
     FM010200 32009KT P6SM SCT070 SCT100
     FM011000 VRB02KT P6SM SCT015 SCT050
     FM011800 33010KT P6SM VCSH SCT015 BKN030=



000
FTUS46 KMFR 010050 CCA
TAFRBG
TAF COR
KRBG 010050Z 0101/0124 30009KT P6SM VCSH SCT030 BKN040 BKN060
     FM010400 VRB02KT P6SM SCT020 BKN030
     FM011800 34005KT P6SM VCSH FEW030 BKN040=



000
FTUS46 KMFR 010050 CCA
TAFRBG
TAF COR
KRBG 010050Z 0101/0124 30009KT P6SM VCSH SCT030 BKN040 BKN060
     FM010400 VRB02KT P6SM SCT020 BKN030
     FM011800 34005KT P6SM VCSH FEW030 BKN040=



000
FTUS46 KMFR 010048 AAA
TAFRBG
TAF AMD
KRBG 010048Z 0101/0124 30009KT P6SM -SHRA SCT030 BKN040 BKN060
     FM010400 VRB02KT P6SM SCT020 BKN030
     FM011800 34005KT P6SM VCSH FEW030 BKN040=



000
FTUS46 KMFR 312349
TAFMFR
TAF
KMFR 312349Z 0100/0124 36011KT P6SM VCSH SCT070 BKN090
     FM010600 VRB02KT P6SM SCT030 BKN060
     FM012100 32008KT P6SM VCSH FEW030 BKN060=



000
FTUS46 KMFR 312349
TAFOTH
TAF
KOTH 312349Z 0100/0124 27010KT P6SM SCT020 BKN050
     FM010300 16005KT P6SM VCSH FEW020 BKN040
     FM010600 14004KT P6SM -SHRA SCT020 BKN030
     FM011800 32012KT P6SM SCT030=



000
FTUS46 KMFR 312349
TAFLMT
TAF
KLMT 312349Z 0100/0124 33012G20KT P6SM -SHRA FEW030 SCT050
     FM010200 32009KT P6SM SCT070 SCT100
     FM011000 VRB02KT P6SM SCT015 SCT050
     FM011800 33010KT P6SM VCSH SCT015 BKN030=



000
FTUS46 KMFR 312349
TAFMFR
TAF
KMFR 312349Z 0100/0124 36011KT P6SM VCSH SCT070 BKN090
     FM010600 VRB02KT P6SM SCT030 BKN060
     FM012100 32008KT P6SM VCSH FEW030 BKN060=



000
FTUS46 KMFR 312349
TAFRBG
TAF
KRBG 312349Z 0100/0124 30009KT P6SM -SHRA SCT030 BKN040 BKN060
      TEMPO 0100/0101 29010G17KT 3SM SHRA BKN030
     FM010400 VRB02KT P6SM SCT020 BKN030
     FM011800 34005KT P6SM VCSH FEW030 BKN040=



000
FTUS46 KMFR 312349
TAFRBG
TAF
KRBG 312349Z 0100/0124 30009KT P6SM -SHRA SCT030 BKN040 BKN060
      TEMPO 0100/0101 29010G17KT 3SM SHRA BKN030
     FM010400 VRB02KT P6SM SCT020 BKN030
     FM011800 34005KT P6SM VCSH FEW030 BKN040=



000
FTUS46 KMFR 312349
TAFOTH
TAF
KOTH 312349Z 0100/0124 27010KT P6SM SCT020 BKN050
     FM010300 16005KT P6SM VCSH FEW020 BKN040
     FM010600 14004KT P6SM -SHRA SCT020 BKN030
     FM011800 32012KT P6SM SCT030=



000
FTUS46 KMFR 312349
TAFLMT
TAF
KLMT 312349Z 0100/0124 33012G20KT P6SM -SHRA FEW030 SCT050
     FM010200 32009KT P6SM SCT070 SCT100
     FM011000 VRB02KT P6SM SCT015 SCT050
     FM011800 33010KT P6SM VCSH SCT015 BKN030=



000
FTUS46 KMFR 312049 AAB
TAFMFR
TAF AMD
KMFR 312049Z 3121/0118 31015G25KT P6SM -SHRA SCT030 BKN050 BKN080
     FM010300 VRB02KT P6SM SCT020 BKN040=



000
FTUS46 KMFR 311957 AAA
TAFRBG
TAF AMD
KRBG 311957Z 3120/0118 18007KT P6SM -SHRA SCT020 BKN035 OVC050
      TEMPO 3120/3121 2SM +SHRA BKN020 OVC030
     FM312100 32010G16KT P6SM -SHRA SCT030 BKN040
     FM010200 VRB03KT P6SM -SHRA BKN030 BKN050
     FM010600 VRB02KT P6SM SCT020 BKN040=



000
FTUS46 KMFR 311957 AAA
TAFRBG
TAF AMD
KRBG 311957Z 3120/0118 18007KT P6SM -SHRA SCT020 BKN035 OVC050
      TEMPO 3120/3121 2SM +SHRA BKN020 OVC030
     FM312100 32010G16KT P6SM -SHRA SCT030 BKN040
     FM010200 VRB03KT P6SM -SHRA BKN030 BKN050
     FM010600 VRB02KT P6SM SCT020 BKN040=



000
FTUS46 KMFR 311915 AAA
TAFOTH

KOTH 311912Z 3119/0118 26005KT P6SM FEW030 SCT050
     FM312000 29012G20KT P6SM -SHRA SCT020 BKN035
     FM010300 15005KT P6SM -SHRA BKN020 BKN040
     FM011000 12004KT P6SM VCSH SCT025=



000
FTUS46 KMFR 311743
TAFOTH
TAF
KOTH 311743Z 3118/0118 29012G20KT P6SM -SHRA SCT020 BKN035
     FM010300 15005KT P6SM -SHRA BKN020 BKN040
     FM011000 12004KT P6SM VCSH SCT025=



000
FTUS46 KMFR 311743
TAFMFR
TAF
KMFR 311743Z 3118/0118 29008KT P6SM -SHRA SCT030 BKN050
     FM312100 31014G22KT P6SM -SHRA SCT030 BKN050
     FM010300 VRB02KT P6SM SCT020 BKN040=



000
FTUS46 KMFR 311743
TAFLMT
TAF
KLMT 311743Z 3118/0118 31019G28KT P6SM -SHRA SCT040 BKN070
     FM010200 32012KT P6SM SCT070 SCT100
     FM010600 VRB04KT P6SM SCT015 SCT050=



000
FTUS46 KMFR 311743
TAFRBG
TAF
KRBG 311743Z 3118/0118 18007KT P6SM -SHRA BKN020 OVC035
     FM312100 32010G16KT P6SM -SHRA SCT030 BKN040
     FM010200 VRB03KT P6SM -SHRA BKN030 BKN050
     FM010600 VRB02KT P6SM SCT020 BKN040=



000
FTUS46 KMFR 311743
TAFOTH
TAF
KOTH 311743Z 3118/0118 29012G20KT P6SM -SHRA SCT020 BKN035
     FM010300 15005KT P6SM -SHRA BKN020 BKN040
     FM011000 12004KT P6SM VCSH SCT025=



000
FTUS46 KMFR 311743
TAFRBG
TAF
KRBG 311743Z 3118/0118 18007KT P6SM -SHRA BKN020 OVC035
     FM312100 32010G16KT P6SM -SHRA SCT030 BKN040
     FM010200 VRB03KT P6SM -SHRA BKN030 BKN050
     FM010600 VRB02KT P6SM SCT020 BKN040=



000
FTUS46 KMFR 311743
TAFLMT
TAF
KLMT 311743Z 3118/0118 31019G28KT P6SM -SHRA SCT040 BKN070
     FM010200 32012KT P6SM SCT070 SCT100
     FM010600 VRB04KT P6SM SCT015 SCT050=



000
FTUS46 KMFR 311743
TAFMFR
TAF
KMFR 311743Z 3118/0118 29008KT P6SM -SHRA SCT030 BKN050
     FM312100 31014G22KT P6SM -SHRA SCT030 BKN050
     FM010300 VRB02KT P6SM SCT020 BKN040=



000
FTUS46 KMFR 311140
TAFLMT
TAF
KLMT 311140Z 3112/0112 27009KT P6SM VCSH FEW025 BKN040
     FM311800 31015G25KT P6SM SCT040 BKN070
     FM010400 32010KT P6SM SCT070 SCT100=



000
FTUS46 KMFR 311140
TAFRBG
TAF
KRBG 311140Z 3112/0112 34008KT P6SM -SHRA BKN020 OVC035
     FM311900 32008KT P6SM -SHRA SCT025 BKN040
     FM312200 32010G16KT P6SM -SHRA SCT030 BKN040
     FM010300 VRB03KT P6SM -SHRA BKN030 BKN050=



000
FTUS46 KMFR 311140
TAFOTH
TAF
KOTH 311140Z 3112/0112 30010KT P6SM -SHRA SCT025 OVC040
     FM311800 29012G20KT P6SM -SHRA SCT020 BKN035
     FM010300 32005KT P6SM -SHRA BKN020 BKN040=



000
FTUS46 KMFR 311140
TAFMFR
TAF
KMFR 311140Z 3112/0112 VRB04KT P6SM -SHRA SCT030 OVC050
     FM311300 33005KT P6SM -SHRA SCT012 BKN025 OVC050
     FM311800 33007KT P6SM -SHRA SCT020 BKN040
     FM312100 33010G20KT P6SM -SHRA SCT020 BKN050
     FM010300 33005KT P6SM VCSH BKN050=



000
FTUS46 KMFR 311140
TAFRBG
TAF
KRBG 311140Z 3112/0112 34008KT P6SM -SHRA BKN020 OVC035
     FM311900 32008KT P6SM -SHRA SCT025 BKN040
     FM312200 32010G16KT P6SM -SHRA SCT030 BKN040
     FM010300 VRB03KT P6SM -SHRA BKN030 BKN050=



000
FTUS46 KMFR 311140
TAFLMT
TAF
KLMT 311140Z 3112/0112 27009KT P6SM VCSH FEW025 BKN040
     FM311800 31015G25KT P6SM SCT040 BKN070
     FM010400 32010KT P6SM SCT070 SCT100=



000
FTUS46 KMFR 311140
TAFMFR
TAF
KMFR 311140Z 3112/0112 VRB04KT P6SM -SHRA SCT030 OVC050
     FM311300 33005KT P6SM -SHRA SCT012 BKN025 OVC050
     FM311800 33007KT P6SM -SHRA SCT020 BKN040
     FM312100 33010G20KT P6SM -SHRA SCT020 BKN050
     FM010300 33005KT P6SM VCSH BKN050=



000
FTUS46 KMFR 311140
TAFOTH
TAF
KOTH 311140Z 3112/0112 30010KT P6SM -SHRA SCT025 OVC040
     FM311800 29012G20KT P6SM -SHRA SCT020 BKN035
     FM010300 32005KT P6SM -SHRA BKN020 BKN040=



000
FTUS46 KMFR 310539 CCA
TAFOTH
TAF COR
KOTH 310539Z 3106/0106 20012KT P6SM -RA BKN020 OVC040
      TEMPO 3106/3109 2SM -RA BR SCT010 BKN015 OVC040
     FM310900 30010KT P6SM -SHRA BKN015 OVC050
     FM311800 29012G20KT P6SM -SHRA SCT020 BKN035 BKN050
     FM010300 32005KT P6SM -SHRA BKN020 BKN050=



000
FTUS46 KMFR 310539 CCA
TAFOTH
TAF COR
KOTH 310539Z 3106/0106 20012KT P6SM -RA BKN020 OVC040
      TEMPO 3106/3109 2SM -RA BR SCT010 BKN015 OVC040
     FM310900 30010KT P6SM -SHRA BKN015 OVC050
     FM311800 29012G20KT P6SM -SHRA SCT020 BKN035 BKN050
     FM010300 32005KT P6SM -SHRA BKN020 BKN050=



000
FTUS46 KMFR 310538
TAFLMT
TAF
KLMT 310538Z 3106/0106 28008KT P6SM BKN200
     FM311200 27009KT P6SM VCSH FEW025 BKN040
     FM311800 31015G25KT P6SM SCT040 BKN070
     FM010400 32010KT P6SM SCT070 SCT100=



000
FTUS46 KMFR 310538
TAFOTH
TAF
KOTH 310538Z 3106/0106 17009KT P6SM -SHRA SCT020 OVC040
     FM310600 22012KT P6SM -SHRA BKN020 OVC050
     FM310900 30010KT P6SM -SHRA BKN015 OVC050
     FM311800 29012G20KT P6SM -SHRA SCT020 BKN035 BKN050
     FM010300 32005KT P6SM -SHRA BKN020 BKN050=



000
FTUS46 KMFR 310538
TAFRBG
TAF
KRBG 310538Z 3106/0106 VRB03KT P6SM SCT080 BKN250
     FM310800 18006KT P6SM -RA SCT020 OVC040
     FM311000 VRB03KT P6SM -SHRA BKN020 OVC035
     FM311900 27005KT P6SM -SHRA SCT025 BKN040
     FM312200 32010G16KT P6SM -SHRA SCT030 BKN040=



000
FTUS46 KMFR 310538
TAFRBG
TAF
KRBG 310538Z 3106/0106 VRB03KT P6SM SCT080 BKN250
     FM310800 18006KT P6SM -RA SCT020 OVC040
     FM311000 VRB03KT P6SM -SHRA BKN020 OVC035
     FM311900 27005KT P6SM -SHRA SCT025 BKN040
     FM312200 32010G16KT P6SM -SHRA SCT030 BKN040=



000
FTUS46 KMFR 310538
TAFMFR
TAF
KMFR 310538Z 3106/0106 31007KT P6SM BKN150 BKN250
     FM310800 VRB03KT P6SM SCT060 OVC120
     FM311000 VRB04KT P6SM -SHRA SCT030 OVC050
     FM311300 33005KT P6SM -SHRA SCT012 BKN025 OVC050
     FM311800 33007KT P6SM -SHRA SCT020 BKN040
     FM312100 33010G20KT P6SM -SHRA SCT020 BKN050
     FM010300 33005KT P6SM VCSH BKN050=



000
FTUS46 KMFR 310538
TAFLMT
TAF
KLMT 310538Z 3106/0106 28008KT P6SM BKN200
     FM311200 27009KT P6SM VCSH FEW025 BKN040
     FM311800 31015G25KT P6SM SCT040 BKN070
     FM010400 32010KT P6SM SCT070 SCT100=



000
FTUS46 KMFR 310538
TAFMFR
TAF
KMFR 310538Z 3106/0106 31007KT P6SM BKN150 BKN250
     FM310800 VRB03KT P6SM SCT060 OVC120
     FM311000 VRB04KT P6SM -SHRA SCT030 OVC050
     FM311300 33005KT P6SM -SHRA SCT012 BKN025 OVC050
     FM311800 33007KT P6SM -SHRA SCT020 BKN040
     FM312100 33010G20KT P6SM -SHRA SCT020 BKN050
     FM010300 33005KT P6SM VCSH BKN050=



000
FTUS46 KMFR 310538
TAFOTH
TAF
KOTH 310538Z 3106/0106 17009KT P6SM -SHRA SCT020 OVC040
     FM310600 22012KT P6SM -SHRA BKN020 OVC050
     FM310900 30010KT P6SM -SHRA BKN015 OVC050
     FM311800 29012G20KT P6SM -SHRA SCT020 BKN035 BKN050
     FM010300 32005KT P6SM -SHRA BKN020 BKN050=



000
FTUS46 KMFR 310445 AAB
TAFRBG
TAF AMD
KRBG 310445Z 3105/3124 VRB05KT P6SM SCT080 BKN250
     FM310700 18009KT P6SM -RA SCT020 OVC040
     FM311200 VRB03KT P6SM -SHRA BKN020 OVC040
     FM311800 33010G16KT P6SM -SHRA SCT030 BKN060=



000
FTUS46 KMFR 310444 AAA
TAFOTH
TAF AMD
KOTH 310444Z 3105/3124 17007KT P6SM BKN050 OVC060
     FM310500 19009KT P6SM -SHRA SCT020 OVC050
     FM310600 23012KT P6SM -SHRA BKN020 OVC050
     FM310900 30010KT P6SM -SHRA BKN015 OVC050
     FM311800 29012G20KT P6SM -SHRA SCT020 BKN060=



000
FTUS46 KMFR 310212 AAA
TAFRBG
TAF AMD
KRBG 310212Z 3102/3124 31010G18KT P6SM SCT080 BKN250
     FM310700 18009KT P6SM -RA SCT020 OVC040
     FM311200 VRB03KT P6SM -SHRA BKN020 OVC040
     FM311800 33010G16KT P6SM -SHRA SCT030 BKN060=



000
FTUS46 KMFR 310210 AAB
TAFMFR
TAF AMD
KMFR 310210Z 3102/3124 30007KT P6SM BKN250
     FM310800 VRB03KT P6SM SCT080 OVC120
     FM311100 VRB03KT P6SM -SHRA SCT035 OVC060
     FM311300 33004KT P6SM -SHRA BKN025 OVC050
     FM311700 33012G20KT P6SM -SHRA SCT030 BKN050=



000
FTUS46 KMFR 310020 AAA
TAFLMT
TAF AMD
KLMT 310020Z 3100/3124 27010KT P6SM BKN200
     FM311200 27007KT P6SM BKN050
     FM311800 33015G25KT P6SM SCT050 SCT100=



000
FTUS46 KMFR 310020 AAA
TAFLMT
TAF AMD
KLMT 310020Z 3100/3124 27010KT P6SM BKN200
     FM311200 27007KT P6SM BKN050
     FM311800 33015G25KT P6SM SCT050 SCT100=



000
FTUS46 KMFR 302341
TAFLMT
TAF
KLMT 302341Z 3100/3124 20005KT P6SM BKN200
     FM311200 27007KT P6SM BKN050
     FM311800 33015G25KT P6SM SCT050 SCT100=



000
FTUS46 KMFR 302341
TAFMFR
TAF
KMFR 302341Z 3100/3124 05005KT P6SM BKN250
     FM310800 VRB03KT P6SM SCT080 OVC120
     FM311100 VRB03KT P6SM -SHRA SCT035 OVC060
     FM311300 33004KT P6SM -SHRA BKN025 OVC050
     FM311700 33012G20KT P6SM -SHRA SCT030 BKN050=



000
FTUS46 KMFR 302341
TAFOTH
TAF
KOTH 302341Z 3100/3124 24011KT P6SM BKN015 OVC200
      TEMPO 3100/3104 FEW015
     FM310500 27011KT P6SM -SHRA FEW010 OVC015
     FM311800 29012G20KT P6SM -SHRA SCT020 BKN060=



000
FTUS46 KMFR 302341
TAFRBG
TAF
KRBG 302341Z 3100/3124 VRB05KT P6SM SCT080 BKN250
     FM310700 18009KT P6SM -RA SCT020 OVC040
     FM311200 VRB03KT P6SM -SHRA BKN020 OVC040
     FM311800 33010G16KT P6SM -SHRA SCT030 BKN060=



000
FTUS46 KMFR 302341
TAFLMT
TAF
KLMT 302341Z 3100/3124 20005KT P6SM BKN200
     FM311200 27007KT P6SM BKN050
     FM311800 33015G25KT P6SM SCT050 SCT100=



000
FTUS46 KMFR 302341
TAFRBG
TAF
KRBG 302341Z 3100/3124 VRB05KT P6SM SCT080 BKN250
     FM310700 18009KT P6SM -RA SCT020 OVC040
     FM311200 VRB03KT P6SM -SHRA BKN020 OVC040
     FM311800 33010G16KT P6SM -SHRA SCT030 BKN060=



000
FTUS46 KMFR 302341
TAFOTH
TAF
KOTH 302341Z 3100/3124 24011KT P6SM BKN015 OVC200
      TEMPO 3100/3104 FEW015
     FM310500 27011KT P6SM -SHRA FEW010 OVC015
     FM311800 29012G20KT P6SM -SHRA SCT020 BKN060=



000
FTUS46 KMFR 302341
TAFMFR
TAF
KMFR 302341Z 3100/3124 05005KT P6SM BKN250
     FM310800 VRB03KT P6SM SCT080 OVC120
     FM311100 VRB03KT P6SM -SHRA SCT035 OVC060
     FM311300 33004KT P6SM -SHRA BKN025 OVC050
     FM311700 33012G20KT P6SM -SHRA SCT030 BKN050=



000
FTUS46 KMFR 302230 AAB
TAFOTH
TAF AMD
KOTH 302230Z 3023/3118 24011KT P6SM FEW040 OVC250
     FM310100 16015G25KT P6SM -RA SCT020 OVC040
     FM310500 27011KT P6SM -SHRA SCT015 OVC025=



000
FTUS46 KMFR 302230 AAB
TAFOTH
TAF AMD
KOTH 302230Z 3023/3118 24011KT P6SM FEW040 OVC250
     FM310100 16015G25KT P6SM -RA SCT020 OVC040
     FM310500 27011KT P6SM -SHRA SCT015 OVC025=



000
FTUS46 KMFR 302001 AAA
TAFOTH
TAF AMD
KOTH 302001Z 3020/3118 28010KT P6SM OVC008
     FM302100 16011KT P6SM SCT040 OVC250
     FM310100 16015G25KT P6SM -RA SCT020 OVC040
     FM310500 27011KT P6SM -SHRA SCT015 OVC025=



000
FTUS46 KMFR 301750
TAFLMT
TAF
KLMT 301750Z 3018/3118 VRB03KT P6SM BKN200
     FM302200 21015G25KT P6SM BKN200
     FM311000 21012G20KT P6SM SCT040 OVC120=



000
FTUS46 KMFR 301750
TAFRBG
TAF
KRBG 301750Z 3018/3118 VRB02KT P6SM BKN250
     FM302200 18007KT P6SM SCT080 BKN250
     FM310600 18009KT P6SM -RA SCT020 OVC040
     FM311200 VRB03KT P6SM -SHRA BKN020 OVC040=



000
FTUS46 KMFR 301750
TAFMFR
TAF
KMFR 301750Z 3018/3118 VRB03KT P6SM BKN250
     FM302300 30008KT P6SM BKN250
     FM310800 VRB03KT P6SM SCT080 OVC120
     FM311000 VRB03KT P6SM -SHRA SCT035 OVC060=



000
FTUS46 KMFR 301750
TAFOTH
TAF
KOTH 301750Z 3018/3118 16004KT P6SM SCT010 OVC250
     FM302000 16011KT P6SM SCT040 OVC250
     FM310100 16015G25KT P6SM -RA SCT020 OVC040
     FM310500 27011KT P6SM -SHRA SCT015 OVC025=



000
FTUS46 KMFR 301750
TAFRBG
TAF
KRBG 301750Z 3018/3118 VRB02KT P6SM BKN250
     FM302200 18007KT P6SM SCT080 BKN250
     FM310600 18009KT P6SM -RA SCT020 OVC040
     FM311200 VRB03KT P6SM -SHRA BKN020 OVC040=



000
FTUS46 KMFR 301750
TAFLMT
TAF
KLMT 301750Z 3018/3118 VRB03KT P6SM BKN200
     FM302200 21015G25KT P6SM BKN200
     FM311000 21012G20KT P6SM SCT040 OVC120=



000
FTUS46 KMFR 301750
TAFMFR
TAF
KMFR 301750Z 3018/3118 VRB03KT P6SM BKN250
     FM302300 30008KT P6SM BKN250
     FM310800 VRB03KT P6SM SCT080 OVC120
     FM311000 VRB03KT P6SM -SHRA SCT035 OVC060=



000
FTUS46 KMFR 301750
TAFOTH
TAF
KOTH 301750Z 3018/3118 16004KT P6SM SCT010 OVC250
     FM302000 16011KT P6SM SCT040 OVC250
     FM310100 16015G25KT P6SM -RA SCT020 OVC040
     FM310500 27011KT P6SM -SHRA SCT015 OVC025=



000
FTUS46 KMFR 301701 AAA
TAFOTH
TAF AMD
KOTH 301701Z 3017/3112 14005KT P6SM BKN006
     FM301800 16008KT P6SM SCT010 BKN050 BKN250
     FM302200 16011KT P6SM SCT040 SCT080 OVC250
     FM310300 16012G20KT P6SM -RA SCT020 OVC040
     FM310800 27011KT P6SM -SHRA OVC020=



000
FTUS46 KMFR 301701 AAA
TAFOTH
TAF AMD
KOTH 301701Z 3017/3112 14005KT P6SM BKN006
     FM301800 16008KT P6SM SCT010 BKN050 BKN250
     FM302200 16011KT P6SM SCT040 SCT080 OVC250
     FM310300 16012G20KT P6SM -RA SCT020 OVC040
     FM310800 27011KT P6SM -SHRA OVC020=



000
FTUS46 KMFR 301121
TAFOTH
TAF
KOTH 301121Z 3012/3112 14005KT P6SM OVC008
     FM301700 16008KT P6SM SCT010 BKN035 BKN250
     FM302200 16011KT P6SM SCT040 SCT080 OVC250
     FM310300 16012G20KT P6SM -RA SCT020 OVC040
     FM310800 27011KT P6SM -SHRA OVC020=



000
FTUS46 KMFR 301121
TAFRBG
TAF
KRBG 301121Z 3012/3112 VRB02KT P6SM BKN250
     FM302200 18007KT P6SM SCT080 BKN250
     FM310600 18009KT P6SM -RA SCT020 OVC040
     FM311000 VRB03KT P6SM -SHRA OVC020=



000
FTUS46 KMFR 301121
TAFLMT
TAF
KLMT 301121Z 3012/3112 VRB03KT P6SM BKN200
     FM302200 21012G20KT P6SM BKN200
     FM311000 21012G20KT P6SM SCT040 OVC120=



000
FTUS46 KMFR 301121
TAFOTH
TAF
KOTH 301121Z 3012/3112 14005KT P6SM OVC008
     FM301700 16008KT P6SM SCT010 BKN035 BKN250
     FM302200 16011KT P6SM SCT040 SCT080 OVC250
     FM310300 16012G20KT P6SM -RA SCT020 OVC040
     FM310800 27011KT P6SM -SHRA OVC020=



000
FTUS46 KMFR 301121
TAFMFR
TAF
KMFR 301121Z 3012/3112 VRB03KT P6SM BKN250
     FM302300 30008KT P6SM BKN250
     FM310300 VRB03KT P6SM SCT040 OVC250
     FM311000 VRB03KT P6SM -RA SCT025 OVC040=



000
FTUS46 KMFR 301121
TAFRBG
TAF
KRBG 301121Z 3012/3112 VRB02KT P6SM BKN250
     FM302200 18007KT P6SM SCT080 BKN250
     FM310600 18009KT P6SM -RA SCT020 OVC040
     FM311000 VRB03KT P6SM -SHRA OVC020=



000
FTUS46 KMFR 301121
TAFLMT
TAF
KLMT 301121Z 3012/3112 VRB03KT P6SM BKN200
     FM302200 21012G20KT P6SM BKN200
     FM311000 21012G20KT P6SM SCT040 OVC120=



000
FTUS46 KMFR 301121
TAFMFR
TAF
KMFR 301121Z 3012/3112 VRB03KT P6SM BKN250
     FM302300 30008KT P6SM BKN250
     FM310300 VRB03KT P6SM SCT040 OVC250
     FM311000 VRB03KT P6SM -RA SCT025 OVC040=



000
FTUS46 KMFR 300524
TAFRBG
TAF
KRBG 300524Z 3006/3106 VRB02KT P6SM SKC
     FM301300 00000KT P6SM OVC006
     FM301700 VRB03KT P6SM SCT008
     FM302000 22003KT P6SM FEW200
     FM302300 29010KT P6SM SCT200
     FM310400 21005KT P6SM FEW070 BKN150=



000
FTUS46 KMFR 300524
TAFMFR
TAF
KMFR 300524Z 3006/3106 VRB03KT P6SM SKC
     FM302200 30008KT P6SM FEW250=



000
FTUS46 KMFR 300524
TAFOTH
TAF
KOTH 300524Z 3006/3106 VRB04KT P6SM OVC008
     FM301300 15004KT 1SM BR BKN002 BKN008
     FM301700 17005KT P6SM SCT006 BKN200
     FM302200 23012KT P6SM SCT150 BKN200
     FM310200 20014G20KT P6SM -RA BKN025 BKN050 BKN080
     FM310400 20014G20KT P6SM -RA BKN025 OVC050=



000
FTUS46 KMFR 300524
TAFLMT
TAF
KLMT 300524Z 3006/3106 VRB04KT P6SM SKC
     FM302100 25009KT P6SM FEW250
     FM302300 27011KT P6SM SCT250=



000
FTUS46 KMFR 300524
TAFMFR
TAF
KMFR 300524Z 3006/3106 VRB03KT P6SM SKC
     FM302200 30008KT P6SM FEW250=



000
FTUS46 KMFR 300524
TAFRBG
TAF
KRBG 300524Z 3006/3106 VRB02KT P6SM SKC
     FM301300 00000KT P6SM OVC006
     FM301700 VRB03KT P6SM SCT008
     FM302000 22003KT P6SM FEW200
     FM302300 29010KT P6SM SCT200
     FM310400 21005KT P6SM FEW070 BKN150=



000
FTUS46 KMFR 300524
TAFLMT
TAF
KLMT 300524Z 3006/3106 VRB04KT P6SM SKC
     FM302100 25009KT P6SM FEW250
     FM302300 27011KT P6SM SCT250=



000
FTUS46 KMFR 300338 AAB
TAFOTH
TAF AMD
KOTH 300338Z 3004/3024 33008KT P6SM BKN008
     FM300400 VRB04KT P6SM OVC008
     FM301100 15004KT 1/2SM FG OVC002
     FM301800 22006KT P6SM SCT002 BKN200=



000
FTUS46 KMFR 300306 AAA
TAFOTH
TAF AMD
KOTH 300306Z 3003/3024 33008KT P6SM FEW012
     FM300400 VRB04KT P6SM OVC012
     FM301100 15004KT 1/2SM FG OVC002
     FM301800 22006KT P6SM SCT002 BKN200=



000
FTUS46 KMFR 292340
TAFOTH
TAF
KOTH 292340Z 3000/3024 33011KT P6SM SKC
     FM300600 15005KT P6SM OVC015
     FM301100 15004KT 1/2SM FG OVC002=



000
FTUS46 KMFR 292340
TAFRBG
TAF
KRBG 292340Z 3000/3024 36007KT P6SM SKC
     FM300400 00000KT P6SM SKC
     FM301400 00000KT P6SM OVC005
     FM301700 00000KT P6SM SCT005=



000
FTUS46 KMFR 292340
TAFLMT
TAF
KLMT 292340Z 3000/3024 01005KT P6SM SKC=



000
FTUS46 KMFR 292340
TAFRBG
TAF
KRBG 292340Z 3000/3024 36007KT P6SM SKC
     FM300400 00000KT P6SM SKC
     FM301400 00000KT P6SM OVC005
     FM301700 00000KT P6SM SCT005=



000
FTUS46 KMFR 292340
TAFOTH
TAF
KOTH 292340Z 3000/3024 33011KT P6SM SKC
     FM300600 15005KT P6SM OVC015
     FM301100 15004KT 1/2SM FG OVC002=



000
FTUS46 KMFR 292340
TAFMFR
TAF
KMFR 292340Z 3000/3024 12003KT P6SM SKC=



000
FTUS46 KMFR 292340
TAFLMT
TAF
KLMT 292340Z 3000/3024 01005KT P6SM SKC=



000
FTUS46 KMFR 292340
TAFMFR
TAF
KMFR 292340Z 3000/3024 12003KT P6SM SKC=



000
FTUS46 KMFR 291743
TAFRBG
TAF
KRBG 291743Z 2918/3018 36007KT P6SM SCT250
     FM300200 VRB03KT P6SM BKN250=



000
FTUS46 KMFR 291743
TAFOTH
TAF
KOTH 291743Z 2918/3018 32007KT P6SM SCT250
     FM292200 32012KT P6SM SCT050 BKN250
     FM300600 15005KT P6SM OVC015
     FM301100 15004KT 3SM BR OVC002=



000
FTUS46 KMFR 291743
TAFLMT
TAF
KLMT 291743Z 2918/3018 33008G15KT P6SM SCT200
     FM300400 VRB03KT P6SM SCT200=



000
FTUS46 KMFR 291743
TAFMFR
TAF
KMFR 291743Z 2918/3018 VRB03KT P6SM SKC
     FM292300 33006KT P6SM BKN250=



000
FTUS46 KMFR 291743
TAFRBG
TAF
KRBG 291743Z 2918/3018 36007KT P6SM SCT250
     FM300200 VRB03KT P6SM BKN250=



000
FTUS46 KMFR 291743
TAFOTH
TAF
KOTH 291743Z 2918/3018 32007KT P6SM SCT250
     FM292200 32012KT P6SM SCT050 BKN250
     FM300600 15005KT P6SM OVC015
     FM301100 15004KT 3SM BR OVC002=



000
FTUS46 KMFR 291743
TAFLMT
TAF
KLMT 291743Z 2918/3018 33008G15KT P6SM SCT200
     FM300400 VRB03KT P6SM SCT200=



000
FTUS46 KMFR 291743
TAFMFR
TAF
KMFR 291743Z 2918/3018 VRB03KT P6SM SKC
     FM292300 33006KT P6SM BKN250=



000
FTUS46 KMFR 291641 AAC
TAFOTH
TAF AMD
KOTH 291641Z 2917/3012 15004KT P6SM SCT005
     FM291900 32010KT P6SM SCT050 BKN250
     FM300600 15005KT P6SM OVC005
     FM301000 15004KT 1SM BR OVC002=



000
FTUS46 KMFR 291504 AAB
TAFOTH
TAF AMD
KOTH 291504Z 2915/3012 15004KT 1/4SM FG OVC002
     FM291600 16003KT 1SM BR OVC003
     FM291700 14003KT P6SM SCT005 SCT120 BKN250
     FM292000 32010KT P6SM SCT050 BKN250
     FM300300 VRB03KT P6SM BKN025 OVC050
     FM300600 15005KT P6SM OVC015=



    US Dept of Commerce
    National Oceanic and Atmospheric Administration
    National Weather Service
    1325 East West Highway
    Silver Spring, MD 20910
    Page Author: NWS Internet Services Team
Disclaimer
Information Quality
Credits
Glossary
Privacy Policy
Freedom of Information Act (FOIA)
About Us
Career Opportunities